createdAt,value
2019-01-19T00:00:52.317Z,14.10
2019-01-19T00:06:08.047Z,10.43
2019-01-19T00:11:23.674Z,10.70
2019-01-19T00:16:41.078Z,12.13
2019-01-19T00:21:56.301Z,12.63
2019-01-19T00:27:11.666Z,10.93
2019-01-19T00:32:27.165Z,10.53
2019-01-19T00:37:43.190Z,9.20
2019-01-19T00:43:01.786Z,11.10
2019-01-19T00:48:17.809Z,8.50
2019-01-19T00:53:33.378Z,7.47
2019-01-19T00:58:48.937Z,9.00
2019-01-19T01:04:04.913Z,11.23
2019-01-19T01:09:21.363Z,10.30
2019-01-19T01:14:37.030Z,10.03
2019-01-19T01:19:53.004Z,9.27
2019-01-19T01:25:08.478Z,10.20
2019-01-19T01:30:24.084Z,10.87
2019-01-19T01:35:40.305Z,9.03
2019-01-19T01:40:56.424Z,11.17
2019-01-19T01:46:12.196Z,11.20
2019-01-19T01:51:27.529Z,8.73
2019-01-19T01:56:31.189Z,10.17
2019-01-19T02:02:13.353Z,10.43
2019-01-19T02:07:56.833Z,11.07
2019-01-19T02:13:40.308Z,10.30
2019-01-19T02:19:22.718Z,10.50
2019-01-19T02:25:06.268Z,12.43
2019-01-19T02:30:49.741Z,8.10
2019-01-19T02:36:31.826Z,7.20
2019-01-19T02:41:47.850Z,7.87
2019-01-19T02:47:03.241Z,12.67
2019-01-19T02:52:18.967Z,8.20
2019-01-19T02:57:36.786Z,6.13
2019-01-19T03:02:52.269Z,7.30
2019-01-19T03:08:08.098Z,6.67
2019-01-19T03:13:23.608Z,8.50
2019-01-19T03:18:41.257Z,7.80
2019-01-19T03:23:56.978Z,7.83
2019-01-19T03:29:12.301Z,6.47
2019-01-19T03:34:56.021Z,6.80
2019-01-19T03:40:11.361Z,6.67
2019-01-19T03:45:26.729Z,6.00
2019-01-19T03:50:42.673Z,4.87
2019-01-19T03:55:58.065Z,8.63
2019-01-19T04:01:13.653Z,4.57
2019-01-19T04:06:29.101Z,6.23
2019-01-19T04:11:44.670Z,7.47
2019-01-19T04:17:00.419Z,7.73
2019-01-19T04:22:15.914Z,6.20
2019-01-19T04:27:31.742Z,6.80
2019-01-19T04:32:47.617Z,7.77
2019-01-19T04:38:03.797Z,6.60
2019-01-19T04:43:19.078Z,6.53
2019-01-19T04:48:35.073Z,6.40
2019-01-19T04:53:51.204Z,8.53
2019-01-19T04:59:07.148Z,6.83
2019-01-19T05:04:22.870Z,7.53
2019-01-19T05:09:38.405Z,8.03
2019-01-19T05:14:54.049Z,4.93
2019-01-19T05:20:09.635Z,5.40
2019-01-19T05:25:53.118Z,7.20
2019-01-19T05:31:15.873Z,7.17
2019-01-19T05:36:38.893Z,6.30
2019-01-19T05:41:54.158Z,4.87
2019-01-19T05:47:09.746Z,6.40
2019-01-19T05:52:25.281Z,7.07
2019-01-19T05:57:40.969Z,6.07
2019-01-19T06:02:56.801Z,6.83
2019-01-19T06:08:12.378Z,5.33
2019-01-19T06:13:28.273Z,4.47
2019-01-19T06:18:44.518Z,5.13
2019-01-19T06:24:00.310Z,6.13
2019-01-19T06:29:15.645Z,3.67
2019-01-19T06:34:31.310Z,7.60
2019-01-19T06:39:46.534Z,4.57
2019-01-19T06:45:01.942Z,5.37
2019-01-19T06:50:17.777Z,4.33
2019-01-19T06:55:33.322Z,4.03
2019-01-19T07:00:48.881Z,5.17
2019-01-19T07:06:04.646Z,5.03
2019-01-19T07:11:20.217Z,3.87
2019-01-19T07:16:36.007Z,3.97
2019-01-19T07:21:51.726Z,4.17
2019-01-19T07:27:07.554Z,3.80
2019-01-19T07:32:23.237Z,6.43
2019-01-19T07:37:39.198Z,4.00
2019-01-19T07:42:56.739Z,3.97
2019-01-19T07:48:12.974Z,3.07
2019-01-19T07:53:28.674Z,5.40
2019-01-19T07:58:48.449Z,3.93
2019-01-19T08:04:05.605Z,5.07
2019-01-19T08:09:20.788Z,3.53
2019-01-19T08:14:36.616Z,5.63
2019-01-19T08:19:53.194Z,4.17
2019-01-19T08:25:08.591Z,6.10
2019-01-19T08:30:24.838Z,6.43
2019-01-19T08:35:40.553Z,4.83
2019-01-19T08:40:56.451Z,3.20
2019-01-19T08:46:11.804Z,2.63
2019-01-19T08:51:27.474Z,5.87
2019-01-19T08:56:43.716Z,5.20
2019-01-19T09:01:59.333Z,3.50
2019-01-19T09:07:14.529Z,3.23
2019-01-19T09:12:30.639Z,4.33
2019-01-19T09:17:46.871Z,3.80
2019-01-19T09:23:04.130Z,4.53
2019-01-19T09:28:19.752Z,4.10
2019-01-19T09:33:34.969Z,3.60
2019-01-19T09:38:50.630Z,2.83
2019-01-19T09:44:06.321Z,3.53
2019-01-19T09:49:21.981Z,3.60
2019-01-19T09:54:37.485Z,5.03
2019-01-19T09:59:52.970Z,2.57
2019-01-19T10:05:08.937Z,3.50
2019-01-19T10:10:24.533Z,2.80
2019-01-19T10:15:40.337Z,3.67
2019-01-19T10:20:55.917Z,3.67
2019-01-19T10:26:11.321Z,3.00
2019-01-19T10:31:27.162Z,3.20
2019-01-19T10:36:42.453Z,2.30
2019-01-19T10:41:58.621Z,3.43
2019-01-19T10:47:14.210Z,3.07
2019-01-19T10:52:29.546Z,6.17
2019-01-19T10:57:45.089Z,1.90
2019-01-19T11:03:01.151Z,2.90
2019-01-19T11:08:17.475Z,3.93
2019-01-19T11:13:33.011Z,4.87
2019-01-19T11:18:48.767Z,3.70
2019-01-19T11:24:04.699Z,4.17
2019-01-19T11:29:20.130Z,3.83
2019-01-19T11:34:35.968Z,2.43
2019-01-19T11:39:51.704Z,3.27
2019-01-19T11:45:07.482Z,2.63
2019-01-19T11:50:22.959Z,2.93
2019-01-19T11:55:38.517Z,2.23
2019-01-19T12:00:54.304Z,3.10
2019-01-19T12:06:09.765Z,4.10
2019-01-19T12:11:25.318Z,4.63
2019-01-19T12:16:40.844Z,4.10
2019-01-19T12:21:56.689Z,2.33
2019-01-19T12:27:12.638Z,4.70
2019-01-19T12:32:28.245Z,2.53
2019-01-19T12:37:43.872Z,2.50
2019-01-19T12:42:59.233Z,2.00
2019-01-19T12:48:14.926Z,2.03
2019-01-19T12:53:31.356Z,1.90
2019-01-19T12:58:46.814Z,1.80
2019-01-19T13:04:02.353Z,5.80
2019-01-19T13:09:17.853Z,2.30
2019-01-19T13:14:34.157Z,3.40
2019-01-19T13:19:50.175Z,2.50
2019-01-19T13:25:05.630Z,2.40
2019-01-19T13:30:21.286Z,1.70
2019-01-19T13:35:37.153Z,3.80
2019-01-19T13:40:52.546Z,3.53
2019-01-19T13:46:08.587Z,3.70
2019-01-19T13:51:24.621Z,2.70
2019-01-19T13:56:40.111Z,2.80
2019-01-19T14:01:56.304Z,2.00
2019-01-19T14:07:11.773Z,4.40
2019-01-19T14:12:54.213Z,3.47
2019-01-19T14:18:36.382Z,2.03
2019-01-19T14:24:18.705Z,1.63
2019-01-19T14:30:01.270Z,2.43
2019-01-19T14:35:45.029Z,2.97
2019-01-19T14:41:01.525Z,2.13
2019-01-19T14:46:16.821Z,2.23
2019-01-19T14:51:33.954Z,1.73
2019-01-19T14:56:49.265Z,2.07
2019-01-19T15:02:06.660Z,2.67
2019-01-19T15:07:22.442Z,4.37
2019-01-19T15:12:38.326Z,7.07
2019-01-19T15:17:54.382Z,9.73
2019-01-19T15:28:31.390Z,5.13
2019-01-19T15:33:53.551Z,7.17
2019-01-19T15:39:15.089Z,6.00
2019-01-19T15:44:31.276Z,5.77
2019-01-19T15:49:47.855Z,7.23
2019-01-19T15:55:03.173Z,4.50
2019-01-19T16:00:19.414Z,4.87
2019-01-19T16:05:38.006Z,4.77
2019-01-19T16:11:03.599Z,4.97
2019-01-19T16:16:14.357Z,6.77
2019-01-19T16:32:14.929Z,5.43
2019-01-19T16:42:51.857Z,7.03
2019-01-19T16:48:10.011Z,6.07
2019-01-19T16:53:28.344Z,7.10
2019-01-19T16:58:43.337Z,5.90
2019-01-19T17:03:58.696Z,7.10
2019-01-19T17:09:14.118Z,9.23
2019-01-19T17:14:32.678Z,7.53
2019-01-19T17:19:48.393Z,6.87
2019-01-19T17:25:05.802Z,9.57
2019-01-19T17:30:21.509Z,9.73
2019-01-19T17:35:40.192Z,9.17
2019-01-19T17:40:55.777Z,9.40
2019-01-19T17:51:41.270Z,8.47
2019-01-19T17:56:58.143Z,10.00
2019-01-19T18:02:15.294Z,8.50
2019-01-19T18:07:31.611Z,12.37
2019-01-19T18:12:47.622Z,9.13
2019-01-19T18:18:02.862Z,8.80
2019-01-19T18:23:18.985Z,9.77
2019-01-19T18:29:02.815Z,9.50
2019-01-19T18:34:45.188Z,8.03
2019-01-19T18:40:01.519Z,7.00
2019-01-19T18:45:17.481Z,9.43
2019-01-19T18:50:33.478Z,6.60
2019-01-19T18:55:49.053Z,11.40
2019-01-19T19:01:05.194Z,8.53
2019-01-19T19:06:24.174Z,11.00
2019-01-19T19:11:39.976Z,11.77
2019-01-19T19:16:55.701Z,14.10
2019-01-19T19:22:11.522Z,13.70
2019-01-19T19:27:27.328Z,13.23
2019-01-19T19:32:44.650Z,12.10
2019-01-19T19:37:59.901Z,13.23
2019-01-19T19:43:16.061Z,10.90
2019-01-19T19:48:34.417Z,11.70
2019-01-19T19:53:50.409Z,11.33
2019-01-19T19:59:06.231Z,14.13
2019-01-19T20:04:21.430Z,9.93
2019-01-19T20:09:36.958Z,11.30
2019-01-19T20:14:52.513Z,13.47
2019-01-19T20:20:08.345Z,12.33
2019-01-19T20:25:23.657Z,12.80
2019-01-19T20:30:39.237Z,10.63
2019-01-19T20:35:42.973Z,12.43
2019-01-19T20:40:58.389Z,8.83
2019-01-19T20:46:13.881Z,10.57
2019-01-19T20:51:29.593Z,10.27
2019-01-19T20:56:33.265Z,10.23
2019-01-19T21:01:56.039Z,9.87
2019-01-19T21:07:18.836Z,7.57
2019-01-19T21:12:41.590Z,8.93
2019-01-19T21:18:04.594Z,6.80
2019-01-19T21:23:27.629Z,9.07
2019-01-19T21:28:50.662Z,9.07
2019-01-19T21:34:13.353Z,7.40
2019-01-19T21:39:28.950Z,7.30
2019-01-19T21:44:44.812Z,8.67
2019-01-19T21:50:01.167Z,12.07
2019-01-19T21:55:16.858Z,11.07
2019-01-19T22:00:32.311Z,12.40
2019-01-19T22:05:49.832Z,11.00
2019-01-19T22:11:05.602Z,12.43
2019-01-19T22:16:23.398Z,13.63
2019-01-19T22:21:39.017Z,11.73
2019-01-19T22:26:55.408Z,11.17
2019-01-19T22:32:11.594Z,10.30
2019-01-19T22:37:27.127Z,9.23
2019-01-19T22:42:42.708Z,9.93
2019-01-19T22:47:58.686Z,9.77
2019-01-19T22:53:14.093Z,9.67
2019-01-19T22:58:29.313Z,10.57
2019-01-19T23:03:45.081Z,7.80
2019-01-19T23:09:00.520Z,9.47
2019-01-19T23:14:16.382Z,12.00
2019-01-19T23:19:32.488Z,8.83
2019-01-19T23:24:48.497Z,8.23
2019-01-19T23:30:04.045Z,11.70
2019-01-19T23:35:20.330Z,8.17
2019-01-19T23:40:35.599Z,10.83
2019-01-19T23:45:51.014Z,7.83
2019-01-19T23:51:06.805Z,9.53
2019-01-19T23:56:22.851Z,9.60
